Time;durP1;ratioP1;P1;durP2;ratioP2;P2;SDS_P1;SDS_P2;PMS_P1;PMS_P2;Temp;Humidity;BMP_temperature;BMP_pressure;BME280_temperature;BME280_humidity;BME280_pressure;Samples;Min_cycle;Max_cycle;Signal;HPM_P1;HPM_P2
2022/10/01 00:01:02;;;;;;;1.30;1.30;;;5.40;99.90;;;;;;5006552;28;20092;-76
2022/10/01 00:03:28;;;;;;;2.53;1.20;;;5.30;99.90;;;;;;5007727;28;20080;-76
2022/10/01 00:06:20;;;;;;;0.90;0.90;;;5.40;99.90;;;;;;5008383;28;20030;-76
2022/10/01 00:08:47;;;;;;;3.50;0.80;;;5.40;99.90;;;;;;4990425;28;20115;-76
2022/10/01 00:11:16;;;;;;;0.70;0.70;;;5.30;99.90;;;;;;5007918;28;20030;-76
2022/10/01 00:13:42;;;;;;;2.05;1.52;;;5.20;99.90;;;;;;5008456;28;20025;-75
2022/10/01 00:16:15;;;;;;;0.95;0.93;;;5.10;99.90;;;;;;4989322;28;20064;-77
2022/10/01 00:18:42;;;;;;;2.55;1.10;;;5.20;99.90;;;;;;4989862;28;20018;-76
2022/10/01 00:21:13;;;;;;;1.08;0.88;;;5.20;99.90;;;;;;5008010;28;20136;-75
2022/10/01 00:23:39;;;;;;;1.60;1.35;;;4.90;99.90;;;;;;5008300;28;20273;-76
2022/10/01 00:26:15;;;;;;;0.63;0.63;;;5.10;99.90;;;;;;5006415;28;20026;-78
2022/10/01 00:28:44;;;;;;;0.82;0.82;;;5.00;99.90;;;;;;5008026;28;20502;-77
2022/10/01 00:31:11;;;;;;;1.67;0.80;;;5.00;99.90;;;;;;5008349;28;20092;-76
2022/10/01 00:33:37;;;;;;;0.82;0.82;;;5.00;99.90;;;;;;5007768;28;20433;-79
2022/10/01 00:36:05;;;;;;;1.15;0.95;;;5.00;99.90;;;;;;5007953;28;20096;-77
2022/10/01 00:38:31;;;;;;;0.80;0.80;;;5.00;99.90;;;;;;5006201;28;20056;-76
2022/10/01 00:40:57;;;;;;;1.45;1.35;;;5.10;99.90;;;;;;5008028;28;20065;-76
2022/10/01 00:43:26;;;;;;;0.70;0.70;;;5.20;99.90;;;;;;5008480;28;20057;-76
2022/10/01 00:45:58;;;;;;;0.38;0.38;;;5.30;99.90;;;;;;5008506;28;20053;-76
2022/10/01 00:48:26;;;;;;;1.70;0.82;;;5.30;99.90;;;;;;4989901;28;20046;-77
2022/10/01 00:50:52;;;;;;;0.63;0.63;;;5.20;99.90;;;;;;5008283;28;20028;-77
2022/10/01 00:53:19;;;;;;;1.85;0.85;;;5.20;99.90;;;;;;5027588;28;20456;-75
2022/10/01 00:55:54;;;;;;;1.13;1.00;;;5.20;99.90;;;;;;5027955;28;20044;-76
2022/10/01 00:58:21;;;;;;;0.77;0.77;;;5.30;99.90;;;;;;5027946;28;20033;-75
2022/10/01 01:00:48;;;;;;;1.10;0.77;;;5.30;99.90;;;;;;5027613;28;20032;-75
2022/10/01 01:03:14;;;;;;;1.98;0.82;;;5.30;99.90;;;;;;5027447;28;20068;-76
2022/10/01 01:05:40;;;;;;;1.23;0.80;;;5.30;99.90;;;;;;5028788;28;20501;-76
2022/10/01 01:08:07;;;;;;;1.50;0.90;;;5.40;99.90;;;;;;5029949;28;20038;-76
2022/10/01 01:10:51;;;;;;;1.27;1.00;;;5.40;99.90;;;;;;5031139;28;20406;-76
2022/10/01 01:13:31;;;;;;;2.55;0.80;;;5.30;99.90;;;;;;5014274;28;20191;-75
2022/10/01 01:16:06;;;;;;;1.80;1.45;;;5.30;99.90;;;;;;5022231;28;20014;-76
2022/10/01 01:18:41;;;;;;;1.05;0.93;;;5.40;99.90;;;;;;5011354;28;20036;-76
2022/10/01 01:21:15;;;;;;;1.13;1.02;;;6.80;99.90;;;;;;5011308;28;20034;-76
2022/10/01 01:24:06;;;;;;;0.80;0.63;;;5.30;99.90;;;;;;4993752;28;20026;-76
2022/10/01 01:26:53;;;;;;;2.13;1.63;;;5.30;99.90;;;;;;5010619;28;20030;-76
2022/10/01 01:29:40;;;;;;;2.72;0.55;;;5.30;99.90;;;;;;5003748;28;20046;-76
2022/10/01 01:32:13;;;;;;;1.27;1.17;;;5.20;99.90;;;;;;5010802;28;20050;-76
2022/10/01 01:34:42;;;;;;;0.90;0.90;;;5.20;99.90;;;;;;4986253;28;20454;-76
2022/10/01 01:37:13;;;;;;;2.75;0.75;;;5.20;99.90;;;;;;4993286;28;20223;-76
2022/10/01 01:39:43;;;;;;;0.82;0.77;;;5.20;99.90;;;;;;4973919;28;20038;-76
2022/10/01 01:42:14;;;;;;;1.15;0.88;;;5.20;99.90;;;;;;4973788;28;20026;-76
2022/10/01 01:44:43;;;;;;;1.33;1.23;;;5.20;99.90;;;;;;4992268;28;20202;-76
2022/10/01 01:47:10;;;;;;;0.57;0.57;;;5.20;99.90;;;;;;4993207;28;20057;-76
2022/10/01 01:49:38;;;;;;;0.57;0.57;;;5.30;99.90;;;;;;4994005;28;20027;-76
2022/10/01 01:52:06;;;;;;;0.57;0.57;;;5.40;99.90;;;;;;4993927;28;20037;-76
2022/10/01 01:54:35;;;;;;;0.50;0.40;;;5.50;99.90;;;;;;4976311;28;20148;-76
2022/10/01 01:57:03;;;;;;;0.70;0.68;;;5.50;99.90;;;;;;4976057;28;20113;-75
2022/10/01 01:59:30;;;;;;;0.50;0.50;;;5.60;99.90;;;;;;4993839;28;20041;-76
2022/10/01 02:01:57;;;;;;;3.50;1.58;;;5.70;99.90;;;;;;4992434;28;20109;-76
2022/10/01 02:04:30;;;;;;;0.73;0.73;;;5.70;99.90;;;;;;4994223;28;20026;-75
2022/10/01 02:07:25;;;;;;;1.10;0.90;;;5.70;99.90;;;;;;4993644;28;20030;-75
2022/10/01 02:10:11;;;;;;;0.70;0.70;;;5.80;99.90;;;;;;4976113;28;20105;-75
2022/10/01 02:13:02;;;;;;;0.45;0.45;;;6.00;99.90;;;;;;4990897;28;20030;-76
2022/10/01 02:15:46;;;;;;;0.60;0.60;;;6.10;99.90;;;;;;4994139;28;20030;-75
2022/10/01 02:18:29;;;;;;;0.77;0.63;;;7.10;99.90;;;;;;4995021;28;20060;-76
2022/10/01 02:21:14;;;;;;;0.65;0.65;;;7.80;99.90;;;;;;4993693;28;20019;-76
2022/10/01 02:23:48;;;;;;;0.47;0.45;;;8.00;99.90;;;;;;4986490;28;20069;-75
2022/10/01 02:26:19;;;;;;;2.30;1.33;;;8.20;99.90;;;;;;4993534;28;20615;-76
2022/10/01 02:28:48;;;;;;;1.45;0.40;;;8.20;99.90;;;;;;4975475;28;20093;-76
2022/10/01 02:31:16;;;;;;;0.82;0.30;;;8.20;99.90;;;;;;4992955;28;20018;-76
2022/10/01 02:33:45;;;;;;;1.17;0.98;;;8.30;99.90;;;;;;4993157;28;20419;-76
2022/10/01 02:36:13;;;;;;;0.30;0.30;;;8.20;99.90;;;;;;5011715;28;20093;-75
2022/10/01 02:38:42;;;;;;;0.65;0.65;;;8.10;99.90;;;;;;5012578;28;20033;-76
2022/10/01 02:41:11;;;;;;;1.17;1.10;;;8.10;99.90;;;;;;5012358;28;20443;-75
2022/10/01 02:44:08;;;;;;;0.65;0.60;;;8.10;99.90;;;;;;5012173;28;20046;-75
2022/10/01 02:46:41;;;;;;;1.30;1.00;;;8.20;99.90;;;;;;5004091;28;20100;-76
2022/10/01 02:49:07;;;;;;;0.50;0.50;;;8.30;99.90;;;;;;5012126;28;20038;-75
2022/10/01 02:51:53;;;;;;;0.47;0.43;;;8.40;99.90;;;;;;5012379;28;20029;-76
2022/10/01 02:54:29;;;;;;;1.75;0.82;;;8.40;99.90;;;;;;5012277;28;20034;-76
2022/10/01 02:59:39;;;;;;;0.52;0.52;;;8.40;99.90;;;;;;5012435;28;20438;-75
2022/10/01 03:02:05;;;;;;;0.57;0.50;;;8.60;99.90;;;;;;5011796;28;20475;-75
2022/10/01 03:04:31;;;;;;;3.45;0.80;;;8.70;99.90;;;;;;5011826;28;20022;-75
2022/10/01 03:07:02;;;;;;;0.38;0.38;;;8.70;99.90;;;;;;5011767;28;20100;-75
2022/10/01 03:09:29;;;;;;;0.85;0.50;;;8.60;99.90;;;;;;5011663;28;20513;-75
2022/10/01 03:11:54;;;;;;;1.35;0.47;;;8.70;99.90;;;;;;5012100;28;20037;-76
2022/10/01 03:14:20;;;;;;;0.35;0.35;;;8.80;99.90;;;;;;5011792;28;20042;-75
2022/10/01 03:16:45;;;;;;;1.38;0.77;;;8.90;99.90;;;;;;5011631;28;20018;-76
2022/10/01 03:19:11;;;;;;;0.35;0.35;;;8.90;99.90;;;;;;5011549;28;20037;-76
2022/10/01 03:21:37;;;;;;;0.60;0.60;;;8.90;99.90;;;;;;5011462;28;20058;-76
2022/10/01 03:24:02;;;;;;;0.30;0.30;;;8.80;99.90;;;;;;5011436;28;20036;-76
2022/10/01 03:26:28;;;;;;;1.27;0.50;;;8.80;99.90;;;;;;5011381;28;20034;-76
2022/10/01 03:28:54;;;;;;;0.38;0.38;;;8.80;99.90;;;;;;5010256;28;20124;-76
2022/10/01 03:31:19;;;;;;;0.70;0.40;;;8.80;99.90;;;;;;5008577;28;20101;-76
2022/10/01 03:33:45;;;;;;;1.02;0.70;;;8.80;99.90;;;;;;4991683;28;20026;-76
2022/10/01 03:36:11;;;;;;;0.28;0.28;;;8.70;99.90;;;;;;5028884;28;20049;-76
2022/10/01 03:38:36;;;;;;;0.32;0.32;;;8.70;99.90;;;;;;5030943;28;20475;-76
2022/10/01 03:41:02;;;;;;;0.90;0.60;;;8.70;99.90;;;;;;5030784;28;20386;-76
2022/10/01 03:43:28;;;;;;;0.40;0.40;;;8.70;99.90;;;;;;5030715;28;20470;-76
2022/10/01 03:45:55;;;;;;;0.55;0.52;;;8.70;99.90;;;;;;5030829;28;20025;-76
2022/10/01 03:48:21;;;;;;;0.75;0.73;;;8.70;99.90;;;;;;5030913;28;20013;-76
2022/10/01 03:50:55;;;;;;;0.80;0.77;;;8.60;99.90;;;;;;5030744;28;20159;-76
2022/10/01 03:53:22;;;;;;;0.52;0.50;;;8.70;99.90;;;;;;5030717;28;20560;-77
2022/10/01 03:55:47;;;;;;;0.50;0.50;;;8.70;99.90;;;;;;5030456;28;20025;-76
2022/10/01 03:58:13;;;;;;;0.40;0.40;;;8.70;99.90;;;;;;5030453;28;20051;-76
2022/10/01 04:00:39;;;;;;;0.30;0.30;;;8.70;99.90;;;;;;5030387;28;20466;-76
2022/10/01 04:03:05;;;;;;;0.80;0.68;;;10.10;99.90;;;;;;5030664;28;20049;-76
2022/10/01 04:05:31;;;;;;;0.30;0.30;;;8.90;99.90;;;;;;5030357;28;20044;-76
2022/10/01 04:07:58;;;;;;;1.35;0.90;;;8.90;99.90;;;;;;5030459;28;20022;-76
2022/10/01 04:10:24;;;;;;;0.68;0.68;;;9.00;99.90;;;;;;5030326;28;20039;-76
2022/10/01 04:12:50;;;;;;;0.75;0.52;;;9.70;99.90;;;;;;5030254;28;20211;-76
2022/10/01 04:15:16;;;;;;;0.40;0.40;;;9.20;99.90;;;;;;5030313;28;20036;-77
2022/10/01 04:17:42;;;;;;;0.52;0.52;;;9.30;99.90;;;;;;5030294;28;20021;-76
2022/10/01 04:20:07;;;;;;;0.30;0.30;;;9.50;99.90;;;;;;5030235;28;20056;-76
2022/10/01 04:22:40;;;;;;;0.40;0.40;;;9.50;99.90;;;;;;5030167;28;20021;-76
2022/10/01 04:25:10;;;;;;;0.40;0.40;;;9.60;99.90;;;;;;5030274;28;20025;-76
2022/10/01 04:27:40;;;;;;;0.20;0.20;;;9.60;99.90;;;;;;5030096;28;20112;-76
2022/10/01 04:30:07;;;;;;;0.30;0.30;;;9.70;99.90;;;;;;5029901;28;20040;-76
2022/10/01 04:32:33;;;;;;;1.65;0.47;;;9.80;99.90;;;;;;5029838;28;20088;-76
2022/10/01 04:35:01;;;;;;;0.40;0.40;;;9.90;99.90;;;;;;5029983;28;20049;-76
2022/10/01 04:37:27;;;;;;;0.20;0.20;;;9.90;99.90;;;;;;5030075;28;20026;-76
2022/10/01 04:39:53;;;;;;;0.88;0.52;;;9.90;99.90;;;;;;5029815;28;20079;-76
2022/10/01 04:42:20;;;;;;;0.28;0.28;;;9.90;99.90;;;;;;5029938;28;20397;-76
2022/10/01 04:44:46;;;;;;;1.30;0.77;;;9.90;99.90;;;;;;5029561;28;20117;-76
2022/10/01 04:47:12;;;;;;;0.17;0.17;;;9.80;99.90;;;;;;5029959;28;20022;-76
2022/10/01 04:49:38;;;;;;;0.30;0.30;;;9.80;99.90;;;;;;5029810;28;20120;-76
2022/10/01 04:52:04;;;;;;;0.50;0.50;;;9.90;99.90;;;;;;5029689;28;20104;-76
2022/10/01 04:54:30;;;;;;;0.22;0.22;;;9.90;99.90;;;;;;5029700;28;20109;-75
2022/10/01 04:56:57;;;;;;;1.10;0.47;;;10.00;99.90;;;;;;5032866;28;20083;-77
2022/10/01 04:59:23;;;;;;;1.85;0.55;;;10.00;99.90;;;;;;5031945;28;20025;-76
2022/10/01 05:01:48;;;;;;;0.70;0.55;;;10.00;99.90;;;;;;5032510;28;20025;-76
2022/10/01 05:04:14;;;;;;;0.20;0.20;;;10.10;99.90;;;;;;5031591;28;20596;-77
2022/10/01 05:06:40;;;;;;;0.20;0.20;;;10.10;99.90;;;;;;5030173;28;20121;-76
2022/10/01 05:09:06;;;;;;;1.10;0.47;;;10.20;99.90;;;;;;5029507;28;20537;-77
2022/10/01 05:11:33;;;;;;;0.15;0.15;;;10.20;99.90;;;;;;5026546;28;20100;-77
2022/10/01 05:13:59;;;;;;;0.93;0.40;;;10.20;99.90;;;;;;5027198;28;20033;-77
2022/10/01 05:16:25;;;;;;;0.22;0.20;;;10.20;99.90;;;;;;5029669;28;20021;-77
2022/10/01 05:18:54;;;;;;;0.38;0.38;;;10.20;99.90;;;;;;5011987;28;20032;-77
2022/10/01 05:21:20;;;;;;;0.88;0.17;;;10.20;99.90;;;;;;5028385;28;20478;-76
2022/10/01 05:23:48;;;;;;;0.40;0.40;;;10.20;99.90;;;;;;5030269;28;20040;-76
2022/10/01 05:26:14;;;;;;;0.38;0.38;;;10.30;99.90;;;;;;5029467;28;20017;-77
2022/10/01 05:28:43;;;;;;;0.25;0.25;;;10.30;99.90;;;;;;5027767;28;20052;-77
2022/10/01 05:31:10;;;;;;;0.10;0.10;;;10.40;99.90;;;;;;5029402;28;20044;-76
2022/10/01 05:33:36;;;;;;;0.55;0.40;;;10.70;99.90;;;;;;5029424;28;20029;-75
2022/10/01 05:36:05;;;;;;;0.35;0.35;;;10.70;99.90;;;;;;5029336;28;20387;-76
2022/10/01 05:38:35;;;;;;;0.20;0.20;;;10.80;99.90;;;;;;5029568;28;20029;-78
2022/10/01 05:41:00;;;;;;;0.20;0.20;;;10.90;99.90;;;;;;5011881;28;20498;-78
2022/10/01 05:43:26;;;;;;;0.10;0.10;;;11.00;99.90;;;;;;5029423;28;20374;-76
2022/10/01 05:45:52;;;;;;;0.10;0.10;;;11.10;99.90;;;;;;5029429;28;20049;-78
2022/10/01 05:48:18;;;;;;;0.17;0.17;;;11.10;99.90;;;;;;5029292;28;20087;-78
2022/10/01 05:50:43;;;;;;;0.85;0.47;;;11.00;99.90;;;;;;5029219;28;20021;-77
2022/10/01 05:53:10;;;;;;;0.10;0.10;;;11.00;99.90;;;;;;5033141;28;20040;-76
2022/10/01 05:55:36;;;;;;;0.40;0.40;;;11.00;99.90;;;;;;5033256;28;20029;-76
2022/10/01 05:58:04;;;;;;;0.40;0.30;;;11.00;99.90;;;;;;5033104;28;20716;-75
2022/10/01 06:00:32;;;;;;;0.52;0.50;;;11.00;99.90;;;;;;5031586;28;20083;-76
2022/10/01 06:02:59;;;;;;;1.77;1.02;;;10.90;99.90;;;;;;5032966;28;20032;-76
2022/10/01 06:05:26;;;;;;;0.45;0.45;;;11.00;99.90;;;;;;5032648;28;20017;-76
2022/10/01 06:07:52;;;;;;;0.30;0.30;;;10.90;99.90;;;;;;5032791;28;20097;-76
2022/10/01 06:10:19;;;;;;;0.30;0.30;;;10.80;99.90;;;;;;5016020;28;20061;-77
2022/10/01 06:12:45;;;;;;;1.45;0.30;;;10.70;99.90;;;;;;5009976;28;20088;-77
2022/10/01 06:15:12;;;;;;;5.63;1.60;;;10.70;99.90;;;;;;4997952;28;20050;-76
2022/10/01 06:17:44;;;;;;;0.20;0.20;;;10.60;99.90;;;;;;4993533;28;20022;-76
2022/10/01 06:20:18;;;;;;;0.38;0.35;;;10.60;99.90;;;;;;4992155;28;20027;-76
2022/10/01 06:22:51;;;;;;;0.15;0.15;;;10.60;99.90;;;;;;4992997;28;20054;-76
2022/10/01 06:25:20;;;;;;;1.13;0.30;;;10.60;99.90;;;;;;4992779;28;20026;-77
2022/10/01 06:28:00;;;;;;;0.60;0.45;;;10.60;99.90;;;;;;4993196;28;20026;-77
2022/10/01 06:30:28;;;;;;;0.40;0.40;;;10.50;99.90;;;;;;4992807;28;20077;-76
2022/10/01 06:33:08;;;;;;;0.68;0.40;;;10.50;99.90;;;;;;4993137;28;20476;-77
2022/10/01 06:35:38;;;;;;;0.35;0.35;;;10.50;99.90;;;;;;4992889;28;20054;-78
2022/10/01 06:38:05;;;;;;;0.85;0.30;;;10.50;99.90;;;;;;4992952;28;20026;-76
2022/10/01 06:40:31;;;;;;;0.38;0.38;;;10.50;99.90;;;;;;4992894;28;20271;-77
2022/10/01 06:42:57;;;;;;;2.17;0.98;;;10.60;99.90;;;;;;4992130;28;20025;-77
2022/10/01 06:45:24;;;;;;;0.45;0.45;;;10.70;99.90;;;;;;4992368;28;20014;-76
2022/10/01 06:48:01;;;;;;;0.30;0.30;;;10.80;99.90;;;;;;4992865;28;20033;-78
2022/10/01 06:50:27;;;;;;;0.40;0.40;;;10.90;99.90;;;;;;4992513;28;20038;-77
2022/10/01 06:52:54;;;;;;;0.20;0.20;;;10.90;99.90;;;;;;5009808;28;20540;-77
2022/10/01 06:55:23;;;;;;;0.30;0.30;;;11.00;99.90;;;;;;5012188;28;20390;-77
2022/10/01 06:57:57;;;;;;;0.10;0.10;;;11.00;99.90;;;;;;5012179;28;20025;-78
2022/10/01 07:00:24;;;;;;;0.30;0.30;;;11.10;99.90;;;;;;5015719;28;20098;-76
2022/10/01 07:02:50;;;;;;;0.20;0.20;;;11.10;99.90;;;;;;5016715;28;20079;-77
2022/10/01 07:05:16;;;;;;;0.20;0.20;;;11.20;99.90;;;;;;5012773;28;20026;-76
2022/10/01 07:07:46;;;;;;;0.30;0.30;;;11.20;99.90;;;;;;5011966;28;20069;-76
2022/10/01 07:10:12;;;;;;;0.30;0.30;;;11.30;99.90;;;;;;5009735;28;20071;-76
2022/10/01 07:12:38;;;;;;;0.40;0.35;;;11.30;99.90;;;;;;5009179;28;20026;-76
2022/10/01 07:15:06;;;;;;;0.68;0.45;;;11.50;99.90;;;;;;5008485;28;20048;-76
2022/10/01 07:17:33;;;;;;;0.52;0.40;;;11.50;99.90;;;;;;5008784;28;20105;-77
2022/10/01 07:20:00;;;;;;;1.10;0.32;;;11.50;99.90;;;;;;5008717;28;20053;-75
2022/10/01 07:22:26;;;;;;;1.85;0.85;;;11.50;99.90;;;;;;5009034;28;20022;-76
2022/10/01 07:24:52;;;;;;;0.40;0.30;;;11.60;99.90;;;;;;5009207;28;20028;-77
2022/10/01 07:27:21;;;;;;;0.38;0.38;;;11.50;99.90;;;;;;5010016;28;20029;-76
2022/10/01 07:29:47;;;;;;;0.20;0.20;;;11.60;99.90;;;;;;5010565;28;20115;-77
2022/10/01 07:32:13;;;;;;;1.10;0.90;;;11.60;99.90;;;;;;5009784;28;20518;-77
2022/10/01 07:34:39;;;;;;;0.17;0.17;;;11.60;99.90;;;;;;5009615;28;20049;-76
2022/10/01 07:37:06;;;;;;;0.73;0.40;;;11.60;99.90;;;;;;5009973;28;20075;-76
2022/10/01 07:39:34;;;;;;;1.08;0.20;;;11.60;99.90;;;;;;5010173;28;20136;-76
2022/10/01 07:42:00;;;;;;;0.20;0.20;;;11.60;99.90;;;;;;5010082;28;20101;-76
2022/10/01 07:44:28;;;;;;;0.15;0.10;;;11.60;99.90;;;;;;5009629;28;20196;-76
2022/10/01 07:46:55;;;;;;;0.98;0.88;;;11.60;99.90;;;;;;5010293;28;20109;-76
2022/10/01 07:49:21;;;;;;;0.52;0.22;;;11.60;99.90;;;;;;5009639;28;20505;-76
2022/10/01 07:51:47;;;;;;;0.10;0.10;;;11.60;99.90;;;;;;5009925;28;20014;-76
2022/10/01 07:54:13;;;;;;;1.67;0.28;;;11.60;99.90;;;;;;5010818;28;20018;-77
2022/10/01 07:56:40;;;;;;;0.30;0.22;;;11.60;99.90;;;;;;5010695;28;20029;-77
2022/10/01 07:59:08;;;;;;;0.68;0.30;;;11.60;99.90;;;;;;5010663;28;20113;-76
2022/10/01 08:01:35;;;;;;;0.10;0.10;;;;;;;;;;5010760;28;20022;-76
2022/10/01 08:05:16;;;;;;;0.70;0.70;;;11.80;99.90;;;;;;5010565;28;20021;-76
2022/10/01 08:06:47;;;;;;;1.80;0.77;;;11.90;99.90;;;;;;5010395;28;20018;-77
2022/10/01 08:09:14;;;;;;;1.50;0.75;;;11.80;99.90;;;;;;5010539;28;20065;-76
2022/10/01 08:11:40;;;;;;;1.00;0.85;;;11.80;99.90;;;;;;5010628;28;20030;-77
2022/10/01 08:14:05;;;;;;;0.70;0.70;;;11.90;99.90;;;;;;5010227;28;20028;-76
2022/10/01 08:16:33;;;;;;;1.23;0.75;;;11.90;99.90;;;;;;5011081;28;20030;-76
2022/10/01 08:18:59;;;;;;;1.85;0.75;;;12.00;99.90;;;;;;5009100;28;20027;-76
2022/10/01 08:21:28;;;;;;;0.95;0.93;;;11.90;99.90;;;;;;5010229;28;20483;-76
2022/10/01 08:23:53;;;;;;;0.70;0.55;;;11.70;99.90;;;;;;5010507;28;20544;-76
2022/10/01 08:26:19;;;;;;;0.57;0.57;;;11.60;99.90;;;;;;5010631;28;20113;-76
2022/10/01 08:28:45;;;;;;;0.68;0.63;;;11.50;99.90;;;;;;5010006;28;20331;-76
2022/10/01 08:31:10;;;;;;;1.95;0.77;;;11.40;99.90;;;;;;5010168;28;20029;-76
2022/10/01 08:33:37;;;;;;;1.00;0.90;;;11.20;99.90;;;;;;5009071;28;20026;-76
2022/10/01 08:36:07;;;;;;;1.42;1.33;;;11.20;99.90;;;;;;5010171;28;20053;-76
2022/10/01 08:38:34;;;;;;;0.73;0.70;;;11.20;99.90;;;;;;5010368;28;20026;-76
2022/10/01 08:41:09;;;;;;;1.15;1.05;;;11.20;99.90;;;;;;5010262;28;20026;-76
2022/10/01 08:43:40;;;;;;;0.93;0.93;;;11.10;99.90;;;;;;5009898;28;20030;-76
2022/10/01 08:46:17;;;;;;;1.63;1.30;;;11.00;99.90;;;;;;5010465;28;20103;-77
2022/10/01 08:49:07;;;;;;;1.88;0.98;;;11.00;99.90;;;;;;4992670;28;20072;-76
2022/10/01 08:51:39;;;;;;;2.25;1.67;;;11.00;99.90;;;;;;5010071;28;20041;-76
2022/10/01 08:54:25;;;;;;;2.17;1.50;;;11.10;99.90;;;;;;5010040;28;20471;-77
2022/10/01 08:56:53;;;;;;;1.02;1.02;;;11.20;99.90;;;;;;5010133;28;20057;-76
2022/10/01 08:59:39;;;;;;;0.93;0.88;;;11.50;99.90;;;;;;5009811;28;20026;-76
2022/10/01 09:02:30;;;;;;;1.15;1.15;;;11.80;99.90;;;;;;5009888;28;20049;-76
2022/10/01 09:05:23;;;;;;;1.00;0.82;;;11.90;99.90;;;;;;5008622;28;20102;-76
2022/10/01 09:08:51;;;;;;;0.70;0.70;;;11.90;99.90;;;;;;5009701;28;20033;-76
2022/10/01 09:11:34;;;;;;;2.60;1.20;;;12.10;99.90;;;;;;4948686;29;20485;-76
2022/10/01 09:14:02;;;;;;;1.05;1.05;;;12.40;99.90;;;;;;4964681;28;20066;-76
2022/10/01 09:16:37;;;;;;;1.38;1.25;;;12.50;99.90;;;;;;4985333;28;20495;-76
2022/10/01 09:19:18;;;;;;;0.70;0.60;;;12.50;99.90;;;;;;5009474;28;20018;-76
2022/10/01 09:21:46;;;;;;;0.60;0.55;;;12.60;99.90;;;;;;5025397;28;20132;-76
2022/10/01 09:24:22;;;;;;;1.48;0.63;;;12.50;99.90;;;;;;5011987;28;20021;-76
2022/10/01 09:26:51;;;;;;;2.33;0.60;;;12.70;99.90;;;;;;5030996;28;20029;-76
2022/10/01 09:29:35;;;;;;;6.83;1.30;;;12.80;99.90;;;;;;5032922;28;20068;-76
2022/10/01 09:32:04;;;;;;;3.35;1.50;;;12.50;99.90;;;;;;5033477;28;20494;-76
2022/10/01 09:34:36;;;;;;;;;;;12.40;99.90;;;;;;5015700;28;20433;-76
2022/10/01 09:37:24;;;;;;;0.40;0.40;;;12.30;99.90;;;;;;5033335;28;19909;-76
2022/10/01 09:39:50;;;;;;;0.77;0.77;;;12.30;99.90;;;;;;5033155;28;20490;-76
2022/10/01 09:42:17;;;;;;;3.97;1.10;;;12.50;99.90;;;;;;5033174;28;20026;-76
2022/10/01 09:44:43;;;;;;;1.10;0.90;;;12.50;99.90;;;;;;5032834;28;20064;-76
2022/10/01 09:47:21;;;;;;;0.52;0.52;;;12.90;99.90;;;;;;5033361;28;20030;-77
2022/10/01 09:49:48;;;;;;;1.77;1.05;;;12.80;99.90;;;;;;5015404;28;20486;-76
2022/10/01 09:52:32;;;;;;;4.32;0.95;;;12.80;99.90;;;;;;5033254;28;20021;-76
2022/10/01 09:55:25;;;;;;;1.38;0.75;;;12.40;99.90;;;;;;5033285;28;20026;-76
2022/10/01 09:57:52;;;;;;;2.60;1.15;;;12.30;99.90;;;;;;5033477;28;20025;-76
2022/10/01 10:00:24;;;;;;;1.88;0.95;;;12.30;99.90;;;;;;5032405;28;20013;-76
2022/10/01 10:02:52;;;;;;;1.08;0.63;;;12.30;99.90;;;;;;5033084;28;20060;-76
2022/10/01 10:05:26;;;;;;;1.37;1.23;;;12.40;99.90;;;;;;5032742;28;20033;-77
2022/10/01 10:07:59;;;;;;;1.10;0.55;;;12.30;99.90;;;;;;5015000;28;20030;-76
2022/10/01 10:10:27;;;;;;;1.00;0.90;;;12.40;99.90;;;;;;5032671;28;20033;-77
2022/10/01 10:13:00;;;;;;;1.00;0.90;;;12.50;99.90;;;;;;5032625;28;20681;-76
2022/10/01 10:15:30;;;;;;;1.65;0.90;;;12.60;99.90;;;;;;5032570;28;20060;-77
2022/10/01 10:18:07;;;;;;;0.90;0.50;;;12.90;99.90;;;;;;5032399;28;20053;-77
2022/10/01 10:20:39;;;;;;;0.95;0.93;;;13.00;99.90;;;;;;5032464;28;20040;-76
2022/10/01 10:23:16;;;;;;;0.95;0.80;;;13.00;99.90;;;;;;5032443;28;20029;-77
2022/10/01 10:25:42;;;;;;;0.50;0.50;;;13.10;99.90;;;;;;5032480;28;20463;-76
2022/10/01 10:28:22;;;;;;;1.80;1.08;;;12.90;99.90;;;;;;5032224;28;20029;-76
2022/10/01 10:30:51;;;;;;;1.20;1.20;;;12.80;99.90;;;;;;5032199;28;20034;-77
2022/10/01 10:33:20;;;;;;;0.68;0.68;;;12.80;99.90;;;;;;5032226;28;20017;-77
2022/10/01 10:35:56;;;;;;;0.75;0.75;;;12.80;99.90;;;;;;5031977;28;20056;-77
2022/10/01 10:38:26;;;;;;;0.70;0.70;;;12.70;99.90;;;;;;5031652;28;20478;-76
2022/10/01 10:40:52;;;;;;;5.72;0.65;;;12.80;99.90;;;;;;5032685;28;20029;-76
2022/10/01 10:43:24;;;;;;;2.42;1.13;;;12.90;99.90;;;;;;5031962;28;20049;-76
2022/10/01 10:45:57;;;;;;;0.75;0.73;;;12.90;99.90;;;;;;5032201;28;20029;-76
2022/10/01 10:48:27;;;;;;;4.60;0.57;;;12.90;99.90;;;;;;5032109;28;20026;-76
2022/10/01 10:51:00;;;;;;;1.75;0.85;;;12.80;99.90;;;;;;5031876;28;20029;-76
2022/10/01 10:53:28;;;;;;;0.60;0.60;;;12.70;99.90;;;;;;5032285;28;20478;-76
2022/10/01 10:56:01;;;;;;;0.47;0.47;;;12.50;99.90;;;;;;5031901;28;20075;-76
2022/10/01 10:58:32;;;;;;;0.20;0.20;;;12.50;99.90;;;;;;5013823;28;20021;-76
2022/10/01 11:01:28;;;;;;;0.43;0.05;;;12.80;99.90;;;;;;5031912;28;20018;-75
2022/10/01 11:03:59;;;;;;;0.20;0.20;;;13.20;99.90;;;;;;5019130;28;20038;-76
2022/10/01 11:06:26;;;;;;;0.20;0.20;;;13.40;99.90;;;;;;5031976;28;20018;-76
2022/10/01 11:09:09;;;;;;;0.00;0.00;;;13.40;99.90;;;;;;5031721;28;20112;-76
2022/10/01 11:11:43;;;;;;;0.17;0.17;;;13.50;99.90;;;;;;5031591;28;20030;-76
2022/10/01 11:14:37;;;;;;;0.00;0.00;;;13.70;99.90;;;;;;5031478;28;20533;-76
2022/10/01 11:17:40;;;;;;;0.52;0.10;;;13.90;99.90;;;;;;5031406;28;20021;-76
2022/10/01 11:20:31;;;;;;;0.20;0.17;;;14.00;99.90;;;;;;5031734;28;20025;-76
2022/10/01 11:23:02;;;;;;;0.15;0.10;;;14.10;99.90;;;;;;5031436;28;20049;-76
2022/10/01 11:25:46;;;;;;;0.00;0.00;;;14.20;99.90;;;;;;5031268;28;20501;-76
2022/10/01 11:28:28;;;;;;;0.03;0.00;;;14.30;99.90;;;;;;5031213;28;20033;-76
2022/10/01 11:31:09;;;;;;;0.25;0.25;;;14.50;99.90;;;;;;5031303;28;20025;-76
2022/10/01 11:34:07;;;;;;;0.38;0.17;;;14.50;99.90;;;;;;5013479;28;20029;-76
2022/10/01 11:36:50;;;;;;;0.00;0.00;;;14.50;99.90;;;;;;5030940;28;20115;-77
2022/10/01 11:39:19;;;;;;;0.10;0.10;;;14.40;99.90;;;;;;5031350;28;20030;-75
2022/10/01 11:42:13;;;;;;;0.00;0.00;;;13.90;99.90;;;;;;5031228;28;20039;-77
2022/10/01 11:44:49;;;;;;;0.10;0.10;;;13.70;99.90;;;;;;5024648;28;20061;-77
2022/10/01 11:47:24;;;;;;;0.00;0.00;;;13.40;99.90;;;;;;5030910;28;20502;-76
2022/10/01 11:50:02;;;;;;;0.00;0.00;;;13.40;99.90;;;;;;5030340;28;20037;-77
2022/10/01 11:52:36;;;;;;;0.10;0.10;;;13.40;99.90;;;;;;5030857;28;20421;-77
2022/10/01 11:58:51;;;;;;;0.00;0.00;;;13.30;99.90;;;;;;5030688;28;20064;-77
2022/10/01 12:01:22;;;;;;;0.10;0.10;;;13.30;99.90;;;;;;5030833;28;20036;-77
2022/10/01 12:03:51;;;;;;;0.00;0.00;;;13.40;99.90;;;;;;5030500;28;20516;-77
2022/10/01 12:06:22;;;;;;;0.00;0.00;;;13.40;99.90;;;;;;5030617;28;20068;-77
2022/10/01 12:08:57;;;;;;;0.10;0.10;;;13.40;99.90;;;;;;5030686;28;20301;-77
2022/10/01 12:11:53;;;;;;;0.00;0.00;;;13.50;99.90;;;;;;5030392;28;20032;-77
2022/10/01 12:14:25;;;;;;;0.73;0.68;;;13.60;99.90;;;;;;5030418;28;20028;-77
2022/10/01 12:17:03;;;;;;;1.35;1.25;;;13.40;99.90;;;;;;5030309;28;20037;-77
2022/10/01 12:19:35;;;;;;;6.40;2.80;;;13.10;99.90;;;;;;5030273;28;20017;-77
2022/10/01 12:22:05;;;;;;;7.32;2.33;;;12.80;99.90;;;;;;5030342;28;20072;-77
2022/10/01 12:24:39;;;;;;;4.40;2.00;;;12.50;99.90;;;;;;5030437;28;20396;-77
2022/10/01 12:27:21;;;;;;;1.70;1.60;;;12.30;99.90;;;;;;5030112;28;20033;-77
2022/10/01 12:30:28;;;;;;;2.75;1.92;;;12.00;99.90;;;;;;5029975;28;20041;-77
2022/10/01 12:33:30;;;;;;;1.27;1.17;;;11.90;99.90;;;;;;5027763;28;20394;-75
2022/10/01 12:36:25;;;;;;;1.80;1.25;;;11.70;99.90;;;;;;5029884;28;20046;-78
2022/10/01 12:39:20;;;;;;;2.15;1.27;;;11.60;99.90;;;;;;5011985;28;20034;-78
2022/10/01 12:42:09;;;;;;;13.32;1.67;;;11.60;99.90;;;;;;5030142;28;20184;-78
2022/10/01 12:44:49;;;;;;;3.15;1.67;;;11.70;99.90;;;;;;5001197;28;20052;-78
2022/10/01 12:47:43;;;;;;;1.35;1.25;;;11.90;99.90;;;;;;5030035;28;20544;-77
2022/10/01 12:50:51;;;;;;;1.55;1.33;;;11.90;99.90;;;;;;5029755;28;20033;-78
2022/10/01 12:53:31;;;;;;;1.38;1.25;;;11.90;99.90;;;;;;5029900;28;20695;-77
2022/10/01 12:56:14;;;;;;;1.60;1.50;;;12.00;99.90;;;;;;5044848;28;20497;-78
2022/10/01 12:59:00;;;;;;;1.58;1.48;;;12.00;99.90;;;;;;5011746;28;20033;-76
2022/10/01 13:01:42;;;;;;;9.63;1.40;;;12.20;99.90;;;;;;5029607;28;20053;-78
2022/10/01 13:04:07;;;;;;;0.73;0.60;;;12.20;99.90;;;;;;5029692;28;20252;-78
2022/10/01 13:06:45;;;;;;;2.30;2.10;;;12.20;99.90;;;;;;5012011;28;20323;-78
2022/10/01 13:09:44;;;;;;;1.08;0.80;;;12.30;99.90;;;;;;5029662;28;20045;-78
2022/10/01 13:12:16;;;;;;;1.17;1.17;;;12.30;99.90;;;;;;5029689;28;20479;-78
2022/10/01 13:14:43;;;;;;;3.40;1.40;;;12.50;99.90;;;;;;5011637;28;20112;-78
2022/10/01 13:17:42;;;;;;;1.70;1.20;;;12.60;99.90;;;;;;5029581;28;20025;-77
2022/10/01 13:20:21;;;;;;;2.67;1.17;;;12.70;99.90;;;;;;5028644;28;20096;-78
2022/10/01 13:23:18;;;;;;;2.33;1.52;;;12.90;99.90;;;;;;5012012;28;20083;-77